-7.9C
ясно
ясно
Дата и времяТемператураДавление, мм рт.ст.Влажность, %Осадки
МинимумМаксимум
14.04.2024 23:00-13.13C-9.64C75776небольшая облачность
15.04.2024 02:00-16.08C-13.35C75986ясно
15.04.2024 05:00-17.41C-17.41C76295небольшая облачность
15.04.2024 08:00-11.35C-11.35C76374переменная облачность
15.04.2024 11:00-6.89C-6.89C76475переменная облачность
15.04.2024 14:00-4.8C-4.8C76470пасмурно
15.04.2024 17:00-4.01C-4.01C76570облачно с прояснениями
15.04.2024 20:00-9.91C-9.91C76590небольшая облачность
15.04.2024 23:00-8.59C-8.59C76591облачно с прояснениями
16.04.2024 02:00-7.63C-7.63C76589небольшая облачность
16.04.2024 05:00-6.56C-6.56C76589переменная облачность
16.04.2024 08:00-1.25C-1.25C76480пасмурно
16.04.2024 11:002.54C2.54C76481облачно с прояснениями
16.04.2024 14:004.54C4.54C76276небольшая облачность
16.04.2024 17:004.27C4.27C76273небольшая облачность
16.04.2024 20:001.74C1.74C76178небольшая облачность
16.04.2024 23:000.47C0.47C76084ясно
17.04.2024 02:000.59C0.59C75785пасмурно
17.04.2024 05:001.6C1.6C75590небольшой дождь
17.04.2024 08:001.2C1.2C75398небольшой снег
17.04.2024 11:001.23C1.23C75398небольшой дождь
17.04.2024 14:003.06C3.06C75398небольшой дождь
17.04.2024 17:004.04C4.04C75399небольшой дождь
17.04.2024 20:002.47C2.47C75598небольшой дождь
17.04.2024 23:002.06C2.06C75597пасмурно
18.04.2024 02:001.84C1.84C75493пасмурно
18.04.2024 05:002.11C2.11C75292пасмурно
18.04.2024 08:002.98C2.98C74796небольшой дождь
18.04.2024 11:004.98C4.98C74496небольшой дождь
18.04.2024 14:009.01C9.01C74576небольшой дождь
18.04.2024 17:007.45C7.45C74673небольшой дождь
18.04.2024 20:003.1C3.1C74987небольшой дождь
18.04.2024 23:002.31C2.31C75291пасмурно
19.04.2024 02:001.39C1.39C75696пасмурно
19.04.2024 05:001.17C1.17C75893пасмурно
19.04.2024 08:001.6C1.6C76079пасмурно
19.04.2024 11:004.41C4.41C76271пасмурно
19.04.2024 14:003.46C3.46C76481пасмурно
19.04.2024 17:002.98C2.98C76580пасмурно
19.04.2024 20:00-0.19C-0.19C76690пасмурно
Дата и время наблюдения: 14.04.2024 20:08:14